]idnight River — HP7399 — position and weather

sailwx.info

Track history (hours):
 
Tides and Currents Weather Stations Pressure Air Temp Water Temp Dewpoint Dewpoint Depression Visibility Wind Speed Wind Dir Waves Ship Positions

]idnight River

Last reported at 2014-Dec-15 17:09 UTC. Time now 2014-Dec-19 09:24 UTC.
Position N 18°17' W 064°52'.

Type: Ship. MMSI: 352319000.

Date/timePositionNaut miles runAvg speedWind from/ knotsBaromVisibWave heightAir tempDewpointWater temp
2014-Dec-15 17:09N 18°17' W 064°52'2 0.3
2014-Dec-15 09:33N 18°17' W 064°50'17 0.7
2014-Dec-14 10:15N 18°22' W 064°32'7 1.2
2014-Dec-14 04:34N 18°23' W 064°39'9 8.8
2014-Dec-14 03:33N 18°24' W 064°48'8 0.3
2014-Dec-13 00:27N 18°32' W 064°49'9 9.7
2014-Dec-12 23:33N 18°32' W 064°39'91 2.0
2014-Dec-11 01:31N 17°55' W 063°12'6 0.3
2014-Dec-10 08:23N 17°51' W 063°07'9 9.6
2014-Dec-10 07:29N 17°60' W 063°09'6 6.3
2014-Dec-10 06:28N 18°05' W 063°05'0 0.1
2014-Dec-10 05:16N 18°05' W 063°05'0 0.0
2014-Dec-10 04:32N 18°05' W 063°05'0 0.0
2014-Dec-09 20:31N 18°05' W 063°05'0 0.0
2014-Dec-09 19:32N 18°05' W 063°05'0 0.2
2014-Dec-09 18:23N 18°05' W 063°05'0 0.0
2014-Dec-09 07:18N 18°05' W 063°05'0 0.0
2014-Dec-09 06:33N 18°05' W 063°05'0 0.0
2014-Dec-09 05:33N 18°05' W 063°05'0 0.0
2014-Dec-09 04:32N 18°05' W 063°05'0 0.0
2014-Dec-09 03:25N 18°05' W 063°05'3 3.5
2014-Dec-09 02:31N 18°05' W 063°08'9 9.6
2014-Dec-09 01:33N 18°06' W 063°18'10 9.3
2014-Dec-09 00:32N 18°08' W 063°28'1 0.0
2014-Dec-07 03:32N 18°08' W 063°29'9 9.6
2014-Dec-07 02:33N 18°06' W 063°19'10 9.7
2014-Dec-07 01:31N 18°05' W 063°08'3 1.5
2014-Dec-06 23:31N 18°05' W 063°05'0 0.0
2014-Dec-06 22:28N 18°05' W 063°05'0 0.0
2014-Dec-06 21:19N 18°05' W 063°05'1 0.8
2014-Dec-06 20:08N 18°05' W 063°06'5 9.0
2014-Dec-06 19:33N 18°07' W 063°11'9 9.1
2014-Dec-06 18:33N 18°10' W 063°20'9 9.0
2014-Dec-06 17:32N 18°14' W 063°29'  
Track history (hours):
 
Tides and Currents Weather Stations Pressure Air Temp Water Temp Dewpoint Dewpoint Depression Visibility Wind Speed Wind Dir Waves Ship Positions

]idnight River

Last reported at 2014-Dec-15 17:09 UTC. Time now 2014-Dec-19 09:24 UTC.
Position N 18°17' W 064°52'.

Type: Ship. MMSI: 352319000.

Date/timePositionNaut miles runAvg speedWind from/ knotsBaromVisibWave heightAir tempDewpointWater temp
2014-Dec-15 17:09N 18°17' W 064°52'2 0.3
2014-Dec-15 09:33N 18°17' W 064°50'17 0.7
2014-Dec-14 10:15N 18°22' W 064°32'7 1.2
2014-Dec-14 04:34N 18°23' W 064°39'9 8.8
2014-Dec-14 03:33N 18°24' W 064°48'8 0.3
2014-Dec-13 00:27N 18°32' W 064°49'9 9.7
2014-Dec-12 23:33N 18°32' W 064°39'91 2.0
2014-Dec-11 01:31N 17°55' W 063°12'6 0.3
2014-Dec-10 08:23N 17°51' W 063°07'9 9.6
2014-Dec-10 07:29N 17°60' W 063°09'6 6.3
2014-Dec-10 06:28N 18°05' W 063°05'0 0.1
2014-Dec-10 05:16N 18°05' W 063°05'0 0.0
2014-Dec-10 04:32N 18°05' W 063°05'0 0.0
2014-Dec-09 20:31N 18°05' W 063°05'0 0.0
2014-Dec-09 19:32N 18°05' W 063°05'0 0.2
2014-Dec-09 18:23N 18°05' W 063°05'0 0.0
2014-Dec-09 07:18N 18°05' W 063°05'0 0.0
2014-Dec-09 06:33N 18°05' W 063°05'0 0.0
2014-Dec-09 05:33N 18°05' W 063°05'0 0.0
2014-Dec-09 04:32N 18°05' W 063°05'0 0.0
2014-Dec-09 03:25N 18°05' W 063°05'3 3.5
2014-Dec-09 02:31N 18°05' W 063°08'9 9.6
2014-Dec-09 01:33N 18°06' W 063°18'10 9.3
2014-Dec-09 00:32N 18°08' W 063°28'1 0.0
2014-Dec-07 03:32N 18°08' W 063°29'9 9.6
2014-Dec-07 02:33N 18°06' W 063°19'10 9.7
2014-Dec-07 01:31N 18°05' W 063°08'3 1.5
2014-Dec-06 23:31N 18°05' W 063°05'0 0.0
2014-Dec-06 22:28N 18°05' W 063°05'0 0.0
2014-Dec-06 21:19N 18°05' W 063°05'1 0.8
2014-Dec-06 20:08N 18°05' W 063°06'5 9.0
2014-Dec-06 19:33N 18°07' W 063°11'9 9.1
2014-Dec-06 18:33N 18°10' W 063°20'9 9.0
2014-Dec-06 17:32N 18°14' W 063°29'  

Dump ship's entire track history